Time;durP1;ratioP1;P1;durP2;ratioP2;P2;SDS_P1;SDS_P2;PMS_P1;PMS_P2;Temp;Humidity;BMP_temperature;BMP_pressure;BME280_temperature;BME280_humidity;BME280_pressure;Samples;Min_cycle;Max_cycle;Signal;HPM_P1;HPM_P2
2021/11/04 00:00:08;;;;;;;30.50;15.50;;;;;;;6.38;76.24;100543.53;4987626;28;20139;-59
2021/11/04 00:02:33;;;;;;;34.90;16.40;;;;;;;6.36;76.21;100543.47;4994556;28;20570;-57
2021/11/04 00:04:58;;;;;;;29.90;15.10;;;;;;;6.34;76.20;100547.72;4998889;28;20297;-59
2021/11/04 00:07:25;;;;;;;34.42;16.27;;;;;;;6.29;76.63;100544.16;4994009;28;20138;-57
2021/11/04 00:09:51;;;;;;;25.30;14.13;;;;;;;6.30;76.28;100548.50;4989674;28;20045;-58
2021/11/04 00:12:16;;;;;;;30.58;16.08;;;;;;;6.24;76.27;100548.34;4993217;28;20494;-57
2021/11/04 00:14:42;;;;;;;30.73;15.77;;;;;;;6.23;76.38;100548.28;4995869;28;20098;-57
2021/11/04 00:17:07;;;;;;;33.20;15.23;;;;;;;6.18;76.40;100547.31;4995819;28;20374;-59
2021/11/04 00:19:33;;;;;;;33.03;16.10;;;;;;;6.17;76.33;100548.13;4994923;28;20669;-58
2021/11/04 00:21:58;;;;;;;29.83;15.18;;;;;;;6.17;76.00;100542.97;4992937;28;20335;-57
2021/11/04 00:24:24;;;;;;;28.60;14.60;;;;;;;6.18;76.18;100543.00;4993440;28;20029;-56
2021/11/04 00:26:50;;;;;;;32.78;15.15;;;;;;;6.15;76.50;100542.06;4993293;28;20164;-57
2021/11/04 00:29:15;;;;;;;32.47;16.05;;;;;;;6.14;76.62;100545.50;4995894;28;20040;-59
2021/11/04 00:31:40;;;;;;;30.42;15.25;;;;;;;6.14;76.49;100550.66;4986338;28;20140;-59
2021/11/04 00:34:06;;;;;;;42.80;20.45;;;;;;;6.09;76.88;100554.03;4987353;28;27354;-56
2021/11/04 00:36:31;;;;;;;30.35;16.15;;;;;;;6.10;76.36;100562.63;4992266;28;20062;-59
2021/11/04 00:38:57;;;;;;;34.00;16.30;;;;;;;6.08;76.51;100553.97;4992964;28;20616;-57
2021/11/04 00:41:22;;;;;;;33.78;15.75;;;;;;;6.09;76.97;100556.59;4992008;28;20796;-56
2021/11/04 00:43:47;;;;;;;35.03;17.20;;;;;;;6.11;76.44;100549.75;4984889;28;20061;-56
2021/11/04 00:46:13;;;;;;;24.55;13.50;;;;;;;6.11;76.31;100546.28;4990590;28;20096;-56
2021/11/04 00:48:39;;;;;;;27.60;14.73;;;;;;;6.09;76.57;100543.66;4990265;28;20060;-57
2021/11/04 00:51:04;;;;;;;35.80;16.85;;;;;;;6.03;76.35;100542.63;4992682;28;20084;-56
2021/11/04 00:53:30;;;;;;;27.52;15.10;;;;;;;6.00;76.78;100542.53;4989035;28;20094;-56
2021/11/04 00:55:58;;;;;;;31.83;16.52;;;;;;;5.95;76.64;100538.97;4984955;28;20075;-56
2021/11/04 00:58:23;;;;;;;29.45;15.82;;;;;;;5.94;76.40;100542.38;4994574;28;20084;-56
2021/11/04 01:00:49;;;;;;;32.03;15.43;;;;;;;5.93;76.49;100541.50;4988294;28;20037;-59
2021/11/04 01:03:14;;;;;;;29.88;15.20;;;;;;;5.89;76.71;100534.50;4992165;28;20046;-56
2021/11/04 01:05:41;;;;;;;35.70;16.77;;;;;;;5.85;76.55;100539.53;4991276;28;20048;-56
2021/11/04 01:08:06;;;;;;;37.90;18.95;;;;;;;5.83;76.54;100538.59;4983684;28;20337;-57
2021/11/04 01:10:31;;;;;;;32.05;16.33;;;;;;;5.83;76.73;100526.53;4985036;28;20045;-56
2021/11/04 01:12:57;;;;;;;27.13;15.13;;;;;;;5.83;76.38;100526.53;5009546;28;20205;-58
2021/11/04 01:15:22;;;;;;;28.55;15.55;;;;;;;5.80;76.82;100535.91;4996134;28;20144;-57
2021/11/04 01:17:48;;;;;;;31.35;16.00;;;;;;;5.76;76.67;100536.66;4989534;28;20311;-58
2021/11/04 01:20:14;;;;;;;34.10;16.77;;;;;;;5.71;76.65;100531.38;4997634;28;20524;-57
2021/11/04 01:22:39;;;;;;;34.78;16.55;;;;;;;5.71;76.56;100534.84;4995615;28;20041;-57
2021/11/04 01:25:05;;;;;;;30.63;15.43;;;;;;;5.70;76.33;100524.44;4991121;28;20061;-57
2021/11/04 01:27:31;;;;;;;35.67;17.23;;;;;;;5.66;76.13;100528.69;4998725;28;20043;-58
2021/11/04 01:29:56;;;;;;;30.75;15.82;;;;;;;5.67;76.15;100524.38;4986022;28;20059;-57
2021/11/04 01:32:22;;;;;;;28.15;15.70;;;;;;;5.64;76.38;100524.28;4995039;28;20537;-56
2021/11/04 01:34:47;;;;;;;33.65;17.42;;;;;;;5.62;76.14;100528.53;4993922;28;20134;-57
2021/11/04 01:37:13;;;;;;;37.67;18.83;;;;;;;5.56;76.42;100524.06;4995776;28;20499;-59
2021/11/04 01:39:39;;;;;;;37.22;18.90;;;;;;;5.55;76.57;100521.47;4992912;28;20038;-56
2021/11/04 01:42:04;;;;;;;30.25;16.42;;;;;;;5.53;76.89;100523.13;4992967;28;20064;-56
2021/11/04 01:44:30;;;;;;;40.25;19.30;;;;;;;5.51;76.85;100529.94;4991848;28;20077;-57
2021/11/04 01:46:55;;;;;;;46.50;21.05;;;;;;;5.50;76.96;100528.19;4992503;28;20037;-57
2021/11/04 01:49:21;;;;;;;37.72;18.70;;;;;;;5.48;76.79;100530.75;4998403;28;20515;-58
2021/11/04 01:51:46;;;;;;;34.00;17.48;;;;;;;5.46;77.00;100523.78;4988626;28;20072;-57
2021/11/04 01:54:12;;;;;;;34.75;18.20;;;;;;;5.44;76.91;100526.31;4996248;28;20037;-57
2021/11/04 01:56:39;;;;;;;35.33;18.27;;;;;;;5.41;76.69;100528.81;4993163;28;20133;-56
2021/11/04 01:59:04;;;;;;;37.42;18.23;;;;;;;5.36;76.50;100525.25;5000735;28;20045;-57
2021/11/04 02:01:30;;;;;;;38.92;19.52;;;;;;;5.34;76.38;100519.13;5003135;28;20847;-56
2021/11/04 02:03:58;;;;;;;36.65;19.45;;;;;;;5.29;76.69;100519.00;4987641;28;20622;-56
2021/11/04 02:06:37;;;;;;;35.33;17.88;;;;;;;5.26;76.90;100523.19;4999588;28;20357;-57
2021/11/04 02:09:25;;;;;;;40.22;19.52;;;;;;;5.23;77.14;100521.41;5033256;28;20368;-57
2021/11/04 02:12:02;;;;;;;29.33;15.93;;;;;;;5.25;76.58;100522.31;4987839;28;20046;-57
2021/11/04 02:14:29;;;;;;;32.58;16.60;;;;;;;5.25;76.63;100524.91;5000351;28;20625;-58
2021/11/04 02:16:56;;;;;;;37.85;18.95;;;;;;;5.21;77.01;100517.91;4999611;28;20122;-58
2021/11/04 02:19:36;;;;;;;29.73;16.88;;;;;;;5.21;76.51;100517.91;4996079;28;20488;-56
2021/11/04 02:22:02;;;;;;;34.80;17.90;;;;;;;5.21;76.52;100519.59;4991221;28;20053;-56
2021/11/04 02:24:39;;;;;;;40.00;19.60;;;;;;;5.19;76.32;100518.69;4998704;28;20469;-57
2021/11/04 02:27:08;;;;;;;33.50;17.58;;;;;;;5.16;76.58;100522.06;4992719;28;20062;-57
2021/11/04 02:29:34;;;;;;;35.15;16.80;;;;;;;5.15;76.51;100520.31;4999999;28;20060;-57
2021/11/04 02:32:00;;;;;;;35.00;16.95;;;;;;;5.13;76.41;100514.22;4992748;28;20425;-57
2021/11/04 02:34:28;;;;;;;34.00;17.45;;;;;;;5.13;76.73;100508.16;5001939;28;20058;-57
2021/11/04 02:36:53;;;;;;;29.08;15.63;;;;;;;5.11;76.84;100508.16;4995506;28;20048;-59
2021/11/04 02:39:19;;;;;;;29.02;15.93;;;;;;;5.09;76.90;100508.91;5015110;28;20037;-57
2021/11/04 02:41:44;;;;;;;23.98;14.23;;;;;;;5.12;76.79;100509.03;4994719;28;20051;-59
2021/11/04 02:44:11;;;;;;;32.72;15.65;;;;;;;5.13;76.04;100509.03;4999266;28;20128;-57
2021/11/04 02:46:37;;;;;;;34.03;17.27;;;;;;;5.13;76.37;100509.03;4994036;28;20470;-57
2021/11/04 02:49:04;;;;;;;29.73;16.08;;;;;;;5.11;76.37;100502.97;5000846;28;20032;-58
2021/11/04 02:51:30;;;;;;;35.70;18.08;;;;;;;5.09;76.54;100504.63;4997580;28;20046;-56
2021/11/04 02:53:56;;;;;;;30.85;16.70;;;;;;;5.11;76.72;100505.56;4989427;28;20081;-56
2021/11/04 02:56:21;;;;;;;32.67;17.42;;;;;;;5.10;76.45;100515.84;4988322;28;20054;-58
2021/11/04 02:58:47;;;;;;;31.75;16.80;;;;;;;5.07;76.70;100516.63;4994492;28;20448;-57
2021/11/04 03:01:12;;;;;;;30.42;16.42;;;;;;;5.05;76.29;100513.13;4992902;28;20034;-56
2021/11/04 03:03:40;;;;;;;27.65;15.07;;;;;;;5.05;76.56;100510.53;4997966;28;20110;-57
2021/11/04 03:06:05;;;;;;;25.48;14.10;;;;;;;5.06;76.17;100512.28;4986243;28;20498;-57
2021/11/04 03:08:30;;;;;;;30.77;15.45;;;;;;;5.04;76.43;100507.91;4994220;28;20134;-58
2021/11/04 03:10:56;;;;;;;27.83;15.30;;;;;;;5.05;76.59;100512.25;4995338;28;20056;-58
2021/11/04 03:13:21;;;;;;;25.50;13.95;;;;;;;5.06;76.54;100514.84;4988991;28;20413;-58
2021/11/04 03:15:56;;;;;;;25.50;14.32;;;;;;;5.03;76.43;100522.53;4987103;28;20046;-58
2021/11/04 03:18:23;;;;;;;25.52;15.00;;;;;;;5.00;76.58;100530.16;4998550;28;20136;-57
2021/11/04 03:20:48;;;;;;;27.00;14.18;;;;;;;4.98;76.60;100531.84;5021821;28;20173;-57
2021/11/04 03:23:14;;;;;;;28.58;15.38;;;;;;;4.97;76.36;100532.69;4995152;28;20121;-56
2021/11/04 03:25:42;;;;;;;28.20;14.52;;;;;;;5.00;76.64;100542.25;4991495;28;20112;-56
2021/11/04 03:28:08;;;;;;;28.52;15.05;;;;;;;5.02;76.41;100543.16;4994621;28;21052;-58
2021/11/04 03:30:36;;;;;;;24.40;13.40;;;;;;;5.04;76.24;100539.78;5008529;28;20099;-58
2021/11/04 03:33:01;;;;;;;30.30;16.50;;;;;;;5.08;76.56;100540.75;4994893;28;20603;-58
2021/11/04 03:35:28;;;;;;;29.25;15.93;;;;;;;5.14;77.10;100540.94;4991237;28;20046;-58
2021/11/04 03:37:54;;;;;;;30.60;16.30;;;;;;;5.21;76.71;100532.53;4984204;28;20087;-59
2021/11/04 03:40:20;;;;;;;35.55;17.58;;;;;;;5.28;77.08;100531.88;4990760;28;20038;-58
2021/11/04 03:42:47;;;;;;;29.48;15.52;;;;;;;5.41;76.76;100533.13;5025332;28;20107;-57
2021/11/04 03:45:13;;;;;;;28.35;15.25;;;;;;;5.51;77.20;100535.13;4994148;28;20099;-57
2021/11/04 03:47:39;;;;;;;30.48;16.23;;;;;;;5.61;77.11;100535.41;4988502;28;20054;-59
2021/11/04 03:50:06;;;;;;;30.05;16.23;;;;;;;5.72;76.85;100540.91;4988315;28;20053;-58
2021/11/04 03:52:32;;;;;;;34.45;18.52;;;;;;;5.82;76.98;100539.44;4991315;28;20041;-57
2021/11/04 03:54:57;;;;;;;32.65;18.17;;;;;;;5.89;77.04;100550.03;4991321;28;20357;-57
2021/11/04 03:57:25;;;;;;;35.28;18.50;;;;;;;5.95;77.02;100551.88;4999638;28;20239;-57
2021/11/04 03:59:51;;;;;;;29.33;16.52;;;;;;;5.97;77.17;100550.22;4990494;28;20052;-58
2021/11/04 04:02:17;;;;;;;27.38;14.70;;;;;;;6.01;77.02;100549.47;4998550;28;20084;-58
2021/11/04 04:04:51;;;;;;;26.90;14.77;;;;;;;6.01;76.95;100550.34;5022329;28;20569;-56
2021/11/04 04:07:16;;;;;;;22.73;13.60;;;;;;;6.03;76.90;100555.56;5025197;28;20037;-57
2021/11/04 04:09:41;;;;;;;26.65;16.05;;;;;;;5.98;77.00;100558.00;4996666;28;20481;-59
2021/11/04 04:12:07;;;;;;;25.60;14.30;;;;;;;5.97;76.98;100547.66;4993957;28;20068;-59
2021/11/04 04:14:32;;;;;;;24.33;13.93;;;;;;;5.94;76.74;100552.72;4993269;28;20250;-56
2021/11/04 04:16:58;;;;;;;24.98;14.48;;;;;;;5.91;76.57;100538.00;4996612;28;20069;-58
2021/11/04 04:19:23;;;;;;;24.35;13.27;;;;;;;5.89;76.53;100547.44;4995879;28;20076;-57
2021/11/04 04:21:48;;;;;;;25.92;14.32;;;;;;;5.84;76.47;100549.00;4985776;28;20096;-57
2021/11/04 04:24:14;;;;;;;24.08;13.60;;;;;;;5.78;76.73;100548.81;5001172;28;20054;-59
2021/11/04 04:26:39;;;;;;;22.25;13.25;;;;;;;5.77;76.61;100554.81;4988265;28;20084;-58
2021/11/04 04:29:04;;;;;;;21.48;12.52;;;;;;;5.72;76.63;100549.53;4994736;28;21044;-59
2021/11/04 04:31:30;;;;;;;22.45;12.63;;;;;;;5.71;76.76;100555.53;4994453;28;20112;-58
2021/11/04 04:33:55;;;;;;;21.17;12.40;;;;;;;5.81;76.85;100554.06;5022620;28;20385;-58
2021/11/04 04:36:22;;;;;;;21.42;12.68;;;;;;;5.91;76.74;100563.00;4999354;28;20140;-58
2021/11/04 04:38:48;;;;;;;19.35;12.00;;;;;;;5.98;77.05;100552.84;5002601;28;20072;-58
2021/11/04 04:41:13;;;;;;;27.10;15.18;;;;;;;6.12;76.69;100555.78;4998993;28;20037;-57
2021/11/04 04:43:39;;;;;;;27.25;15.00;;;;;;;6.25;76.67;100557.00;4989684;28;20052;-58
2021/11/04 04:46:04;;;;;;;28.98;15.18;;;;;;;6.34;77.05;100565.00;4993455;28;20060;-57
2021/11/04 04:48:30;;;;;;;30.80;16.65;;;;;;;6.43;77.32;100562.63;4995815;28;20077;-57
2021/11/04 04:50:55;;;;;;;30.73;16.25;;;;;;;6.51;77.16;100562.00;4995197;28;20034;-58
2021/11/04 04:53:20;;;;;;;26.17;15.40;;;;;;;6.59;77.39;100566.50;4998616;28;20452;-58
2021/11/04 04:55:46;;;;;;;27.55;16.05;;;;;;;6.62;77.37;100564.84;4985763;28;20441;-59
2021/11/04 04:58:11;;;;;;;24.33;14.88;;;;;;;6.68;77.19;100566.69;4999037;28;20033;-58
2021/11/04 05:00:36;;;;;;;25.00;14.52;;;;;;;6.66;77.02;100570.94;4992967;28;20104;-58
2021/11/04 05:03:03;;;;;;;25.92;15.18;;;;;;;6.59;77.14;100577.69;4996275;28;20384;-59
2021/11/04 05:05:29;;;;;;;21.45;13.38;;;;;;;6.58;77.05;100577.69;4993568;28;20584;-61
2021/11/04 05:07:54;;;;;;;22.00;12.70;;;;;;;6.57;76.94;100578.53;4994198;28;20048;-55
2021/11/04 05:10:20;;;;;;;23.95;13.50;;;;;;;6.55;76.45;100569.81;5024682;28;20049;-57
2021/11/04 05:12:45;;;;;;;22.15;13.73;;;;;;;6.51;77.03;100572.34;4995161;28;20242;-59
2021/11/04 05:15:11;;;;;;;22.52;12.88;;;;;;;6.56;77.02;100575.03;4985577;28;20403;-58
2021/11/04 05:17:38;;;;;;;25.52;14.23;;;;;;;6.59;77.22;100577.69;4991820;28;20496;-57
2021/11/04 05:20:05;;;;;;;26.75;14.95;;;;;;;6.66;77.02;100584.78;4990353;28;20151;-58
2021/11/04 05:22:31;;;;;;;25.30;14.68;;;;;;;6.78;77.13;100587.66;4997459;28;20041;-59
2021/11/04 05:24:57;;;;;;;25.55;14.07;;;;;;;6.86;77.25;100580.09;5009268;28;20041;-58
2021/11/04 05:27:22;;;;;;;27.98;15.50;;;;;;;7.03;77.03;100596.91;4993373;28;20037;-58
2021/11/04 05:29:47;;;;;;;20.92;12.02;;;;;;;7.01;78.13;100608.97;4983284;28;20563;-58
2021/11/04 05:32:13;;;;;;;28.60;14.18;;;;;;;7.34;77.69;100607.13;4992604;28;20041;-58
2021/11/04 05:34:39;;;;;;;22.48;13.15;;;;;;;7.45;77.76;100612.53;4992503;28;20530;-56
2021/11/04 05:37:06;;;;;;;20.60;11.45;;;;;;;7.54;77.36;100609.28;4987255;28;20042;-57
2021/11/04 05:39:31;;;;;;;17.00;9.75;;;;;;;7.61;77.14;100614.63;4992635;28;20528;-57
2021/11/04 05:41:56;;;;;;;14.85;7.20;;;;;;;7.75;77.61;100612.31;4983886;28;20558;-57
2021/11/04 05:44:22;;;;;;;10.40;4.90;;;;;;;7.87;78.65;100609.94;4994694;28;20540;-56
2021/11/04 05:46:47;;;;;;;12.98;4.97;;;;;;;8.10;78.30;100616.50;4992758;28;20060;-55
2021/11/04 05:49:13;;;;;;;13.25;6.93;;;;;;;8.18;77.71;100598.44;4991653;28;20051;-57
2021/11/04 05:51:38;;;;;;;12.35;5.60;;;;;;;8.17;77.47;100598.44;4992117;28;20747;-58
2021/11/04 05:54:04;;;;;;;6.45;4.38;;;;;;;8.19;77.19;100597.59;4990303;28;20041;-57
2021/11/04 05:56:29;;;;;;;11.10;5.55;;;;;;;8.15;77.57;100607.06;4997293;28;20120;-58
2021/11/04 05:58:55;;;;;;;12.75;5.35;;;;;;;8.12;77.38;100600.91;4988996;28;20620;-57
2021/11/04 06:01:21;;;;;;;9.43;4.70;;;;;;;8.08;77.23;100609.50;4998349;28;20551;-57
2021/11/04 06:03:46;;;;;;;11.50;4.97;;;;;;;8.06;77.46;100608.59;4993250;28;20042;-59
2021/11/04 06:06:11;;;;;;;7.68;4.45;;;;;;;8.03;77.49;100612.03;4998900;28;20350;-57
2021/11/04 06:08:37;;;;;;;7.68;4.38;;;;;;;8.01;76.98;100605.03;5000585;28;20363;-56
2021/11/04 06:11:03;;;;;;;10.52;4.38;;;;;;;7.97;77.00;100606.72;4993292;28;20273;-57
2021/11/04 06:13:29;;;;;;;9.82;4.85;;;;;;;7.97;77.37;100611.91;4993793;28;20441;-57
2021/11/04 06:15:54;;;;;;;11.10;4.95;;;;;;;7.98;77.06;100603.28;4995892;28;20069;-57
2021/11/04 06:18:19;;;;;;;10.00;5.72;;;;;;;7.97;77.13;100613.63;4995338;28;20575;-57
2021/11/04 06:20:45;;;;;;;11.80;5.57;;;;;;;7.98;77.33;100610.19;4997089;28;20455;-56
2021/11/04 06:23:10;;;;;;;10.30;5.13;;;;;;;8.03;77.13;100600.75;4998271;28;20141;-57
2021/11/04 06:25:35;;;;;;;8.52;4.63;;;;;;;8.08;77.36;100593.94;5000529;28;20583;-57
2021/11/04 06:28:01;;;;;;;14.07;9.10;;;;;;;8.08;77.47;100602.59;4990023;28;20262;-56
2021/11/04 06:30:26;;;;;;;12.20;7.05;;;;;;;8.09;76.97;100599.16;4997229;28;20049;-57
2021/11/04 06:32:52;;;;;;;10.80;6.20;;;;;;;8.11;77.31;100602.63;4995875;28;20103;-59
2021/11/04 06:35:17;;;;;;;15.25;7.85;;;;;;;8.17;77.53;100606.22;4992456;28;20304;-57
2021/11/04 06:37:43;;;;;;;15.75;7.18;;;;;;;8.22;77.28;100623.63;4996263;28;20038;-58
2021/11/04 06:40:09;;;;;;;16.60;8.27;;;;;;;8.28;77.41;100628.94;4998730;28;20547;-57
2021/11/04 06:42:35;;;;;;;13.15;6.68;;;;;;;8.31;77.36;100628.13;5002417;28;20438;-56
2021/11/04 06:45:00;;;;;;;14.57;7.43;;;;;;;8.34;77.46;100626.50;4998104;28;20042;-57
2021/11/04 06:47:30;;;;;;;14.63;6.93;;;;;;;8.40;77.30;100623.13;4997145;28;20053;-57
2021/11/04 06:49:57;;;;;;;10.55;5.93;;;;;;;8.43;77.17;100631.84;4991102;28;20484;-59
2021/11/04 06:52:25;;;;;;;11.82;6.15;;;;;;;8.48;77.24;100637.13;4998710;28;20453;-55
2021/11/04 06:54:54;;;;;;;9.30;5.57;;;;;;;8.55;77.62;100638.97;4994093;28;20038;-56
2021/11/04 06:57:21;;;;;;;38.22;7.20;;;;;;;8.60;77.56;100642.53;4997096;28;20057;-59
2021/11/04 06:59:51;;;;;;;13.20;5.60;;;;;;;8.65;77.17;100643.50;4999445;28;20041;-60
2021/11/04 07:02:33;;;;;;;12.68;4.93;;;;;;;8.69;77.60;100642.69;4995526;28;20863;-58
2021/11/04 07:04:59;;;;;;;11.93;4.15;;;;;;;8.77;77.80;100651.50;4987607;28;20881;-60
2021/11/04 07:07:25;;;;;;;9.90;4.05;;;;;;;8.82;77.46;100655.06;4993273;28;20334;-58
2021/11/04 07:09:51;;;;;;;6.15;4.00;;;;;;;8.88;77.26;100656.88;5016864;28;20569;-58
2021/11/04 07:12:17;;;;;;;6.75;3.70;;;;;;;8.95;77.30;100656.13;4988842;28;20488;-58
2021/11/04 07:14:42;;;;;;;8.80;3.70;;;;;;;8.97;77.40;100662.22;4986401;28;20280;-57
2021/11/04 07:17:10;;;;;;;6.80;3.58;;;;;;;9.07;77.70;100658.06;4989562;28;20044;-58
2021/11/04 07:19:36;;;;;;;8.40;3.67;;;;;;;9.14;77.57;100654.72;4993815;28;20073;-58
2021/11/04 07:22:35;;;;;;;6.63;3.72;;;;;;;9.23;77.23;100655.72;4988732;28;20338;-58
2021/11/04 07:25:07;;;;;;;7.88;3.70;;;;;;;9.29;77.68;100657.53;5000058;28;20041;-60
2021/11/04 07:27:58;;;;;;;13.25;4.35;;;;;;;9.28;77.76;100659.25;4991623;28;20088;-58
2021/11/04 07:30:25;;;;;;;11.63;4.40;;;;;;;9.29;77.64;100662.72;4994702;28;20480;-58
2021/11/04 07:33:04;;;;;;;8.85;4.13;;;;;;;9.32;77.21;100661.06;4989784;28;20164;-58
2021/11/04 07:35:38;;;;;;;10.05;3.97;;;;;;;9.41;77.45;100670.72;4992022;28;20063;-58
2021/11/04 07:38:06;;;;;;;7.85;3.88;;;;;;;9.54;77.83;100667.44;5010412;28;20729;-59
2021/11/04 07:40:31;;;;;;;8.15;3.90;;;;;;;9.70;77.38;100660.72;4991357;28;20524;-58
2021/11/04 07:42:57;;;;;;;10.75;3.42;;;;;;;9.86;77.55;100662.69;4993458;28;20053;-59
2021/11/04 07:45:24;;;;;;;6.00;3.38;;;;;;;10.01;77.78;100662.84;5009565;28;20077;-58
2021/11/04 07:47:49;;;;;;;7.65;3.30;;;;;;;10.21;77.67;100662.25;4986670;28;20069;-58
2021/11/04 07:50:18;;;;;;;8.52;3.30;;;;;;;10.36;77.76;100660.72;4989847;28;20107;-59
2021/11/04 07:52:43;;;;;;;10.05;3.10;;;;;;;10.44;77.53;100660.78;4988262;28;20792;-58
2021/11/04 07:55:10;;;;;;;6.57;3.38;;;;;;;10.57;77.43;100665.25;5027810;28;20046;-58
2021/11/04 07:57:39;;;;;;;7.22;3.10;;;;;;;10.56;77.60;100666.97;4986241;28;20294;-58
2021/11/04 08:00:21;;;;;;;6.28;3.15;;;;;;;10.57;77.60;100663.53;4989770;28;20050;-58
2021/11/04 08:02:46;;;;;;;8.75;2.88;;;;;;;10.48;77.34;100663.44;4992411;28;20572;-58
2021/11/04 08:05:17;;;;;;;5.13;3.22;;;;;;;10.51;77.32;100662.59;4985953;28;20098;-57
2021/11/04 08:07:42;;;;;;;6.70;3.13;;;;;;;10.59;77.43;100660.94;4988437;28;20050;-55
2021/11/04 08:10:11;;;;;;;7.88;3.60;;;;;;;10.76;77.64;100666.31;5007788;28;20591;-59
2021/11/04 08:12:36;;;;;;;7.90;3.65;;;;;;;10.99;77.72;100672.59;4986969;28;20041;-58
2021/11/04 08:15:08;;;;;;;11.27;4.00;;;;;;;11.20;77.56;100659.75;4991145;28;20595;-58
2021/11/04 08:17:34;;;;;;;7.80;4.00;;;;;;;11.44;77.79;100669.47;4995511;28;20057;-57
2021/11/04 08:20:00;;;;;;;12.57;4.03;;;;;;;11.61;77.50;100665.22;4985670;28;20597;-59
2021/11/04 08:22:26;;;;;;;7.95;3.80;;;;;;;11.74;77.69;100663.59;4996965;28;20148;-59
2021/11/04 08:24:51;;;;;;;5.95;3.60;;;;;;;11.87;77.58;100668.00;4993989;28;20520;-58
2021/11/04 08:27:18;;;;;;;9.57;3.40;;;;;;;11.87;77.20;100667.13;4985935;28;20036;-58
2021/11/04 08:29:47;;;;;;;8.10;3.00;;;;;;;11.91;76.90;100672.38;4985883;28;20290;-58
2021/11/04 08:32:13;;;;;;;9.75;2.90;;;;;;;12.06;77.36;100667.22;4978942;28;20362;-58
2021/11/04 08:34:39;;;;;;;7.10;2.55;;;;;;;12.19;77.27;100676.88;4987511;28;20056;-59
2021/11/04 08:37:05;;;;;;;6.80;2.50;;;;;;;12.35;77.38;100674.28;4988227;28;20629;-60
2021/11/04 08:39:30;;;;;;;8.20;2.70;;;;;;;12.44;77.12;100675.16;4992147;28;20037;-58
2021/11/04 08:41:58;;;;;;;10.52;3.53;;;;;;;12.49;76.76;100670.84;4987047;28;20568;-60
2021/11/04 08:44:24;;;;;;;11.40;3.00;;;;;;;12.54;76.79;100676.09;4995564;28;20124;-59
2021/11/04 08:46:49;;;;;;;8.50;3.10;;;;;;;12.49;76.88;100675.22;4991819;28;20048;-58
2021/11/04 08:49:15;;;;;;;6.80;1.90;;;;;;;12.43;76.65;100677.81;4984085;28;20380;-58
2021/11/04 08:51:40;;;;;;;6.00;1.50;;;;;;;12.38;76.38;100687.38;4990269;28;20492;-59
2021/11/04 08:54:07;;;;;;;7.05;1.20;;;;;;;12.26;76.33;100688.19;4966431;28;20443;-58
2021/11/04 08:56:37;;;;;;;3.70;1.10;;;;;;;12.22;76.26;100696.91;4989686;28;20166;-58
2021/11/04 08:59:04;;;;;;;5.18;1.27;;;;;;;12.29;76.67;100703.03;4990069;28;20059;-60
2021/11/04 09:01:31;;;;;;;7.63;1.33;;;;;;;12.29;76.38;100701.28;4992867;28;20037;-59
2021/11/04 09:03:56;;;;;;;8.52;1.10;;;;;;;12.23;76.55;100711.72;4996082;28;20050;-58
2021/11/04 09:06:21;;;;;;;6.40;0.90;;;;;;;12.05;76.41;100720.34;4995883;28;20076;-60
2021/11/04 09:08:47;;;;;;;7.15;1.30;;;;;;;11.95;76.04;100715.97;4986109;28;20606;-58
2021/11/04 09:11:12;;;;;;;6.90;1.25;;;;;;;11.81;75.81;100703.66;4987073;28;20046;-58
2021/11/04 09:13:39;;;;;;;3.55;0.95;;;;;;;11.68;76.07;100706.19;4990330;28;20557;-59
2021/11/04 09:16:05;;;;;;;2.33;0.80;;;;;;;11.56;76.39;100710.44;4994257;28;20057;-59
2021/11/04 09:18:31;;;;;;;4.85;1.48;;;;;;;11.50;76.02;100699.97;4989390;28;20045;-57
2021/11/04 09:20:56;;;;;;;6.78;1.10;;;;;;;11.43;76.38;100701.66;4983495;28;20433;-57
2021/11/04 09:23:21;;;;;;;3.92;1.00;;;;;;;11.39;76.18;100694.69;4986787;28;20041;-60
2021/11/04 09:25:47;;;;;;;5.32;1.50;;;;;;;11.38;76.36;100691.19;4981740;28;20045;-56
2021/11/04 09:28:12;;;;;;;4.05;1.13;;;;;;;11.44;76.60;100690.34;4995589;28;20480;-57
2021/11/04 09:30:38;;;;;;;2.05;1.00;;;;;;;11.50;76.97;100685.16;4986756;28;20564;-56
2021/11/04 09:33:03;;;;;;;2.63;0.80;;;;;;;11.49;76.66;100678.19;4988887;28;20044;-58
2021/11/04 09:35:29;;;;;;;2.30;0.90;;;;;;;11.52;76.34;100680.84;4991430;28;20115;-57
2021/11/04 09:37:54;;;;;;;3.97;0.80;;;;;;;11.53;76.91;100684.31;4990402;28;20447;-58
2021/11/04 09:40:20;;;;;;;3.45;0.70;;;;;;;11.45;76.20;100684.28;4992629;28;20681;-57
2021/11/04 09:42:46;;;;;;;2.63;0.60;;;;;;;11.50;76.72;100690.41;5000912;28;20522;-58
2021/11/04 09:45:13;;;;;;;5.25;0.88;;;;;;;11.48;76.83;100693.84;4993090;28;20508;-58
2021/11/04 09:47:39;;;;;;;4.65;0.85;;;;;;;11.48;76.42;100693.84;4994266;28;20033;-58
2021/11/04 09:50:07;;;;;;;5.22;0.80;;;;;;;11.43;76.11;100691.22;4990255;28;20049;-58
2021/11/04 09:52:34;;;;;;;4.60;1.00;;;;;;;11.52;76.42;100698.25;4992193;28;20049;-57
2021/11/04 09:55:07;;;;;;;6.38;1.17;;;;;;;11.51;75.94;100692.16;4995963;28;20048;-57
2021/11/04 09:57:32;;;;;;;4.60;0.95;;;;;;;11.57;75.87;100699.16;5000891;28;20466;-57
2021/11/04 09:59:58;;;;;;;4.45;1.25;;;;;;;11.64;75.65;100695.72;4986015;28;20760;-58
2021/11/04 10:02:25;;;;;;;5.15;1.05;;;;;;;11.66;75.81;100696.56;4999100;28;20054;-59
2021/11/04 10:04:51;;;;;;;2.88;0.90;;;;;;;11.69;75.39;100699.22;4996096;28;20049;-57
2021/11/04 10:07:18;;;;;;;5.30;1.05;;;;;;;11.70;75.47;100700.97;4998064;28;20053;-57
2021/11/04 10:10:00;;;;;;;6.30;1.08;;;;;;;11.71;75.53;100702.72;5007696;28;20076;-56
2021/11/04 10:12:26;;;;;;;6.05;1.20;;;;;;;11.68;75.45;100702.69;4994767;28;20397;-57
2021/11/04 10:14:53;;;;;;;3.60;1.10;;;;;;;11.67;75.34;100704.44;4995113;28;20358;-58
2021/11/04 10:17:40;;;;;;;6.43;1.10;;;;;;;11.63;75.63;100709.63;4996887;28;20048;-57
2021/11/04 10:20:20;;;;;;;4.78;1.00;;;;;;;11.52;75.33;100714.78;4992433;28;21047;-58
2021/11/04 10:23:04;;;;;;;4.68;1.23;;;;;;;11.44;75.22;100713.84;4998582;28;20049;-58
2021/11/04 10:25:30;;;;;;;3.22;1.20;;;;;;;11.32;75.24;100704.19;5025174;28;20036;-58
2021/11/04 10:27:56;;;;;;;5.28;1.50;;;;;;;11.21;75.83;100718.91;4997155;28;20096;-58
2021/11/04 10:30:54;;;;;;;6.95;2.20;;;;;;;11.15;75.54;100717.97;4999368;28;20048;-58
2021/11/04 10:33:25;;;;;;;8.13;1.55;;;;;;;11.16;75.78;100720.56;4986622;28;20100;-58
2021/11/04 10:35:59;;;;;;;5.10;1.60;;;;;;;11.11;75.44;100713.56;4991834;28;20041;-56
2021/11/04 10:38:30;;;;;;;7.13;1.57;;;;;;;11.14;76.06;100717.09;4992330;28;20064;-58
2021/11/04 10:40:55;;;;;;;5.18;1.30;;;;;;;11.23;76.10;100722.38;4988184;28;20050;-59
2021/11/04 10:43:21;;;;;;;7.20;1.60;;;;;;;11.31;76.24;100718.09;4997141;28;20071;-58
2021/11/04 10:45:58;;;;;;;9.35;1.30;;;;;;;11.48;76.70;100717.34;4994136;28;20092;-57
2021/11/04 10:48:24;;;;;;;5.97;0.90;;;;;;;11.63;77.16;100718.34;4994852;28;20063;-57
2021/11/04 10:50:50;;;;;;;4.72;0.82;;;;;;;11.79;77.09;100716.72;4995629;28;20041;-57
2021/11/04 10:53:23;;;;;;;3.65;0.82;;;;;;;11.97;76.82;100721.16;4998731;28;20185;-57
2021/11/04 10:55:56;;;;;;;3.40;0.80;;;;;;;12.03;76.51;100723.81;5014008;28;20445;-58
2021/11/04 10:58:26;;;;;;;6.80;0.80;;;;;;;12.15;75.99;100721.25;4997526;28;20041;-59
2021/11/04 11:00:52;;;;;;;5.85;0.70;;;;;;;12.16;75.64;100721.28;4992301;28;20503;-58
2021/11/04 11:03:17;;;;;;;2.17;0.52;;;;;;;12.25;74.25;100714.34;4992701;28;20575;-56
2021/11/04 11:05:43;;;;;;;4.05;0.50;;;;;;;12.20;72.14;100729.97;4993646;28;20152;-57
2021/11/04 11:08:10;;;;;;;3.15;0.50;;;;;;;12.22;70.16;100717.81;4994762;28;20552;-57
2021/11/04 11:10:36;;;;;;;18.75;1.70;;;;;;;12.22;70.95;100717.81;4986582;28;20265;-58
2021/11/04 11:13:03;;;;;;;9.75;0.70;;;;;;;12.31;70.87;100722.22;4988906;28;20141;-58
2021/11/04 11:15:29;;;;;;;5.20;0.50;;;;;;;12.29;68.13;100731.78;4996559;28;20041;-56
2021/11/04 11:17:55;;;;;;;3.08;0.47;;;;;;;12.33;69.19;100730.91;5012249;28;20394;-58
2021/11/04 11:20:21;;;;;;;12.93;0.98;;;;;;;12.38;67.83;100737.91;4994319;28;20034;-58